FQCH

Chimoio Airport

Chimoio, Mozambique
METAR FQCH 140400Z 16006KT 9999 BKN020 17/16 Q1020
Observed Flight Rules
Nov-14 @ 04:00 UTC (an hour ago) Marginal Visual Flight Rules
Wind Visibility Clouds
160° at 6 knots 10,000+ meters
  • Broken at 2,000' AGL
Temperatures Readings
Current 17°C / 63°F
Dewpoint 16°C / 61°F
Humidity 94%
Altimeter 30.12" Hg
Pressure 1020 hPa
Elevation 732
METAR FQCH 140400Z 16006KT 9999 BKN020 17/16 Q1020
Observed Flight Rules
Nov-14 @ 04:00 UTC
(an hour ago)
MVFR
Wind Visibility
160° at 6 knots 10,000+ meters
Clouds
  • Broken at 2,000' AGL
Temperature Dewpoint
17°C / 63°F 16°C / 61°F
Humidity Altimeter Pressure
94% 30.12" Hg 1020 hPa